Flight Track Log - Related Links

Times and Time Zones

All times are in EDT time to prevent confusion due to time zone crossing. See the N45NS flight status page for this flight to view local times or setup timezone preferences in your user account.

Time Position Orientation Groundspeed Altitude Reporting Facility
EDT Latitude Longitude Course Direction KTS MPH feet Rate Location/Type
Tue 07:57:00 PM 43.4436 -80.4089 173° South 350 403 2,400  Level Cleveland Center
Tue 07:58:00 PM 43.3792 -80.3975 173° South 277 319 4,500 2,050 Climbing Cleveland Center
Tue 07:59:00 PM 43.3144 -80.3864 173° South 253 291 6,500 2,250 Climbing Cleveland Center
Tue 08:00:00 PM 43.2372 -80.3467 159° South 277 319 9,000 2,250 Climbing Cleveland Center
Tue 08:01:00 PM 43.1622 -80.3100 160° South 292 336 11,000 1,406 Climbing Cleveland Center
Tue 08:02:08 PM 43.0500 -80.2333 153° Southeast 340 391 12,000 469 Climbing Toronto Center
Tue 08:03:08 PM 42.9500 -80.2000 166° South 350 403 12,000 -50 Level Toronto Center
Tue 08:04:08 PM 42.8500 -80.2000 180° South 350 403 11,900 -50 Descending Toronto Center
Tue 08:05:08 PM 42.7500 -80.2000 180° South 350 403 11,900 -268 Level Toronto Center
Tue 08:06:00 PM 42.6908 -80.2103 187° South 352 405 11,400 -482 Descending Cleveland Center
Tue 08:07:00 PM 42.5825 -80.2025 177° South 352 405 11,000 -600 Descending Cleveland Center
Tue 08:08:00 PM 42.4972 -80.2003 179° South 338 389 10,200 -1,300 Descending Cleveland Center
Tue 08:09:00 PM 42.4158 -80.1922 176° South 309 356 8,400 -1,950 Descending Cleveland Center
Tue 08:10:00 PM 42.3386 -80.1900 179° South 286 329 6,300 -1,967 Descending Cleveland Center
Tue 08:12:00 PM 42.2053 -80.1600 171° South 255 293 2,500 -1,333 Descending Cleveland Center
Tue 08:13:00 PM 42.1550 -80.1267 154° Southeast 224 258 2,300 -550 Descending Cleveland Center
Tue 08:14:00 PM 42.1111 -80.1214 175° South 163 188 1,400 -700 Descending Cleveland Center
Tue 08:15:00 PM 42.0925 -80.1578 235° Southwest 115 132 900 -250 Descending Cleveland Center
Tue 08:16:00 PM 42.0614 -80.1608 184° South 115 132 900  Level Cleveland Center
Tue 08:17:00 PM 42.0667 -80.1667 323° Northwest  Level FlightAware Approximate

Login

Don't have an account? Register now (free) for customized features, flight alerts, and more!